Etusivu
METAR-TAF:

METAR-TAF

Lentoasemat :

Perry Stokes Airport

Trinidad, Colorado, Yhdysvallat

Leveyspiiri: 37-16N, Pituuspiiri: 104-26W, korkeus merenpinnasta: 1756 m

Tämänhetkinen sää

Tämä raportti tehtiin 39 minuuttia sitten, kello 03.54 UTC
Tuuli 6 kn etelästä/kaakosta
Lämpötila 11°C
Kosteus 43%
Ilmanpaine 1027 hPa
Näkyvyys: 16.1 km
Muutamia pilviä 6000 ft:n korkeudessa
Hajanaisia pilviä 8000 ft:n korkeudessa

METAR: KTAD 260354Z AUTO 16006KT 10SM FEW060 SCT080 11/M01 A3033 RMK AO2 SLP229 T01111006

Aika: 22:33 (04:33 UTC)


TAF: puuttuu

Säähavainnot ja -ennusteet yli 4000 lentoasemalta (METAR- ja TAF-raportit).

Käytössä olevat sääasemat on merkitty karttaan keltaisilla ja punaisilla pisteillä.

Aseta hiiri pisteen päälle nähdäksesi sääaseman nimen.

Klikkaa sitten nähdäksesi säähavainnot ja -ennusteet.

Kartan vaihtaminen: klikkaa mustalla rastilla varustettuja vihreitä pisteitä, niin voit zoomata sisään; viivalla varustettua vihreää pistettä, niin voit zoomata ulos tai vihreitä nuolia, niin pääset viereisille kartoille.


METAR-TAF: